sensor_id;sensor_type;location;lat;lon;timestamp;P1;durP1;ratioP1;P2;durP2;ratioP2
4268;SDS011;2148;48.554;7.834;2023-07-20T00:01:33;5.60;;;2.67;;
4268;SDS011;2148;48.554;7.834;2023-07-20T00:03:59;4.10;;;2.93;;
4268;SDS011;2148;48.554;7.834;2023-07-20T00:06:24;3.63;;;2.70;;
4268;SDS011;2148;48.554;7.834;2023-07-20T00:08:52;3.63;;;2.70;;
4268;SDS011;2148;48.554;7.834;2023-07-20T00:11:17;3.37;;;2.83;;
4268;SDS011;2148;48.554;7.834;2023-07-20T00:13:43;4.87;;;2.80;;
4268;SDS011;2148;48.554;7.834;2023-07-20T00:16:08;4.33;;;2.70;;
4268;SDS011;2148;48.554;7.834;2023-07-20T00:18:33;6.33;;;2.93;;
4268;SDS011;2148;48.554;7.834;2023-07-20T00:20:59;3.27;;;2.50;;
4268;SDS011;2148;48.554;7.834;2023-07-20T00:23:27;3.43;;;3.00;;
4268;SDS011;2148;48.554;7.834;2023-07-20T00:25:52;4.17;;;3.10;;
4268;SDS011;2148;48.554;7.834;2023-07-20T00:28:18;3.77;;;2.70;;
4268;SDS011;2148;48.554;7.834;2023-07-20T00:30:43;3.03;;;2.70;;
4268;SDS011;2148;48.554;7.834;2023-07-20T00:33:10;4.13;;;2.83;;
4268;SDS011;2148;48.554;7.834;2023-07-20T00:35:36;4.50;;;3.20;;
4268;SDS011;2148;48.554;7.834;2023-07-20T00:38:02;2.83;;;2.53;;
4268;SDS011;2148;48.554;7.834;2023-07-20T00:40:28;4.20;;;2.93;;
4268;SDS011;2148;48.554;7.834;2023-07-20T00:42:53;3.90;;;2.97;;
4268;SDS011;2148;48.554;7.834;2023-07-20T00:45:18;4.93;;;2.80;;
4268;SDS011;2148;48.554;7.834;2023-07-20T00:47:44;3.30;;;2.57;;
4268;SDS011;2148;48.554;7.834;2023-07-20T00:50:09;3.80;;;2.50;;
4268;SDS011;2148;48.554;7.834;2023-07-20T00:52:35;3.13;;;2.77;;
4268;SDS011;2148;48.554;7.834;2023-07-20T00:55:04;6.93;;;3.13;;
4268;SDS011;2148;48.554;7.834;2023-07-20T00:57:29;4.40;;;2.90;;
4268;SDS011;2148;48.554;7.834;2023-07-20T00:59:55;6.07;;;2.60;;
4268;SDS011;2148;48.554;7.834;2023-07-20T01:02:20;3.03;;;2.73;;
4268;SDS011;2148;48.554;7.834;2023-07-20T01:04:46;4.30;;;2.43;;
4268;SDS011;2148;48.554;7.834;2023-07-20T01:07:16;3.83;;;2.83;;
4268;SDS011;2148;48.554;7.834;2023-07-20T01:09:48;3.77;;;2.60;;
4268;SDS011;2148;48.554;7.834;2023-07-20T01:12:18;3.40;;;3.00;;
4268;SDS011;2148;48.554;7.834;2023-07-20T01:14:48;3.57;;;2.60;;
4268;SDS011;2148;48.554;7.834;2023-07-20T01:17:14;3.93;;;2.40;;
4268;SDS011;2148;48.554;7.834;2023-07-20T01:19:39;2.93;;;2.60;;
4268;SDS011;2148;48.554;7.834;2023-07-20T01:22:09;3.80;;;2.60;;
4268;SDS011;2148;48.554;7.834;2023-07-20T01:27:54;4.47;;;2.57;;
4268;SDS011;2148;48.554;7.834;2023-07-20T01:30:43;6.23;;;3.03;;
4268;SDS011;2148;48.554;7.834;2023-07-20T01:33:14;4.27;;;3.00;;
4268;SDS011;2148;48.554;7.834;2023-07-20T01:35:50;3.27;;;2.60;;
4268;SDS011;2148;48.554;7.834;2023-07-20T01:38:43;3.57;;;2.80;;
4268;SDS011;2148;48.554;7.834;2023-07-20T01:41:09;3.73;;;2.90;;
4268;SDS011;2148;48.554;7.834;2023-07-20T01:43:35;3.63;;;2.83;;
4268;SDS011;2148;48.554;7.834;2023-07-20T01:46:01;4.13;;;2.67;;
4268;SDS011;2148;48.554;7.834;2023-07-20T01:48:27;3.70;;;2.77;;
4268;SDS011;2148;48.554;7.834;2023-07-20T01:50:58;3.90;;;3.00;;
4268;SDS011;2148;48.554;7.834;2023-07-20T01:53:29;3.47;;;3.17;;
4268;SDS011;2148;48.554;7.834;2023-07-20T01:55:56;4.20;;;3.10;;
4268;SDS011;2148;48.554;7.834;2023-07-20T01:58:22;3.63;;;3.33;;
4268;SDS011;2148;48.554;7.834;2023-07-20T02:00:50;8.10;;;3.73;;
4268;SDS011;2148;48.554;7.834;2023-07-20T02:03:15;4.73;;;3.10;;
4268;SDS011;2148;48.554;7.834;2023-07-20T02:05:44;2.70;;;2.50;;
4268;SDS011;2148;48.554;7.834;2023-07-20T02:08:15;5.67;;;3.00;;
4268;SDS011;2148;48.554;7.834;2023-07-20T02:10:41;3.80;;;2.97;;
4268;SDS011;2148;48.554;7.834;2023-07-20T02:13:16;4.43;;;3.00;;
4268;SDS011;2148;48.554;7.834;2023-07-20T02:15:44;4.37;;;3.43;;
4268;SDS011;2148;48.554;7.834;2023-07-20T02:18:09;3.80;;;3.17;;
4268;SDS011;2148;48.554;7.834;2023-07-20T02:20:38;3.30;;;2.83;;
4268;SDS011;2148;48.554;7.834;2023-07-20T02:23:03;5.33;;;3.07;;
4268;SDS011;2148;48.554;7.834;2023-07-20T02:25:28;4.80;;;3.30;;
4268;SDS011;2148;48.554;7.834;2023-07-20T02:28:00;4.03;;;3.30;;
4268;SDS011;2148;48.554;7.834;2023-07-20T02:30:28;5.30;;;3.20;;
4268;SDS011;2148;48.554;7.834;2023-07-20T02:33:03;4.23;;;3.33;;
4268;SDS011;2148;48.554;7.834;2023-07-20T02:35:30;3.87;;;3.40;;
4268;SDS011;2148;48.554;7.834;2023-07-20T02:37:55;3.30;;;3.00;;
4268;SDS011;2148;48.554;7.834;2023-07-20T02:40:20;4.13;;;3.20;;
4268;SDS011;2148;48.554;7.834;2023-07-20T02:42:46;4.67;;;3.20;;
4268;SDS011;2148;48.554;7.834;2023-07-20T02:45:11;5.60;;;3.50;;
4268;SDS011;2148;48.554;7.834;2023-07-20T02:47:37;3.20;;;2.90;;
4268;SDS011;2148;48.554;7.834;2023-07-20T02:50:02;4.33;;;3.13;;
4268;SDS011;2148;48.554;7.834;2023-07-20T02:52:28;4.10;;;3.07;;
4268;SDS011;2148;48.554;7.834;2023-07-20T02:54:54;4.27;;;3.20;;
4268;SDS011;2148;48.554;7.834;2023-07-20T02:57:20;4.07;;;3.17;;
4268;SDS011;2148;48.554;7.834;2023-07-20T02:59:45;3.87;;;3.50;;
4268;SDS011;2148;48.554;7.834;2023-07-20T03:02:10;4.27;;;3.33;;
4268;SDS011;2148;48.554;7.834;2023-07-20T03:04:36;7.50;;;3.10;;
4268;SDS011;2148;48.554;7.834;2023-07-20T03:07:04;3.80;;;3.33;;
4268;SDS011;2148;48.554;7.834;2023-07-20T03:09:30;6.73;;;3.40;;
4268;SDS011;2148;48.554;7.834;2023-07-20T03:11:55;4.30;;;3.30;;
4268;SDS011;2148;48.554;7.834;2023-07-20T03:14:21;8.40;;;3.53;;
4268;SDS011;2148;48.554;7.834;2023-07-20T03:16:46;3.47;;;3.17;;
4268;SDS011;2148;48.554;7.834;2023-07-20T03:19:11;7.10;;;3.67;;
4268;SDS011;2148;48.554;7.834;2023-07-20T03:21:37;5.23;;;3.43;;
4268;SDS011;2148;48.554;7.834;2023-07-20T03:24:05;5.17;;;3.80;;
4268;SDS011;2148;48.554;7.834;2023-07-20T03:26:32;5.20;;;3.87;;
4268;SDS011;2148;48.554;7.834;2023-07-20T03:28:57;5.30;;;3.37;;
4268;SDS011;2148;48.554;7.834;2023-07-20T03:31:22;5.93;;;3.50;;
4268;SDS011;2148;48.554;7.834;2023-07-20T03:33:48;5.33;;;3.70;;
4268;SDS011;2148;48.554;7.834;2023-07-20T03:36:13;5.23;;;3.83;;
4268;SDS011;2148;48.554;7.834;2023-07-20T03:38:38;4.90;;;3.80;;
4268;SDS011;2148;48.554;7.834;2023-07-20T03:41:04;4.67;;;3.83;;
4268;SDS011;2148;48.554;7.834;2023-07-20T03:43:29;4.30;;;3.33;;
4268;SDS011;2148;48.554;7.834;2023-07-20T03:45:54;6.47;;;3.70;;
4268;SDS011;2148;48.554;7.834;2023-07-20T03:48:22;4.53;;;3.63;;
4268;SDS011;2148;48.554;7.834;2023-07-20T03:50:48;5.47;;;3.83;;
4268;SDS011;2148;48.554;7.834;2023-07-20T03:53:14;4.73;;;3.20;;
4268;SDS011;2148;48.554;7.834;2023-07-20T03:55:41;4.23;;;3.83;;
4268;SDS011;2148;48.554;7.834;2023-07-20T03:58:07;6.50;;;3.70;;
4268;SDS011;2148;48.554;7.834;2023-07-20T04:00:32;4.90;;;3.67;;
4268;SDS011;2148;48.554;7.834;2023-07-20T04:02:58;4.13;;;3.67;;
4268;SDS011;2148;48.554;7.834;2023-07-20T04:05:24;3.90;;;3.50;;
4268;SDS011;2148;48.554;7.834;2023-07-20T04:07:49;5.90;;;3.73;;
4268;SDS011;2148;48.554;7.834;2023-07-20T04:10:16;5.10;;;3.83;;
4268;SDS011;2148;48.554;7.834;2023-07-20T04:12:41;7.10;;;3.90;;
4268;SDS011;2148;48.554;7.834;2023-07-20T04:15:07;3.43;;;3.13;;
4268;SDS011;2148;48.554;7.834;2023-07-20T04:17:32;6.03;;;4.10;;
4268;SDS011;2148;48.554;7.834;2023-07-20T04:19:58;6.00;;;4.20;;
4268;SDS011;2148;48.554;7.834;2023-07-20T04:22:23;6.83;;;4.10;;
4268;SDS011;2148;48.554;7.834;2023-07-20T04:24:48;4.93;;;3.40;;
4268;SDS011;2148;48.554;7.834;2023-07-20T04:27:13;5.13;;;3.57;;
4268;SDS011;2148;48.554;7.834;2023-07-20T04:29:39;7.17;;;3.70;;
4268;SDS011;2148;48.554;7.834;2023-07-20T04:32:04;6.73;;;3.93;;
4268;SDS011;2148;48.554;7.834;2023-07-20T04:34:30;4.40;;;3.40;;
4268;SDS011;2148;48.554;7.834;2023-07-20T04:36:55;4.23;;;3.57;;
4268;SDS011;2148;48.554;7.834;2023-07-20T04:39:20;5.23;;;3.50;;
4268;SDS011;2148;48.554;7.834;2023-07-20T04:41:45;5.37;;;3.70;;
4268;SDS011;2148;48.554;7.834;2023-07-20T04:44:11;6.17;;;3.63;;
4268;SDS011;2148;48.554;7.834;2023-07-20T04:46:36;4.70;;;3.40;;
4268;SDS011;2148;48.554;7.834;2023-07-20T04:49:01;4.50;;;3.70;;
4268;SDS011;2148;48.554;7.834;2023-07-20T04:51:27;3.93;;;3.63;;
4268;SDS011;2148;48.554;7.834;2023-07-20T04:53:55;5.40;;;3.70;;
4268;SDS011;2148;48.554;7.834;2023-07-20T04:56:21;5.07;;;3.73;;
4268;SDS011;2148;48.554;7.834;2023-07-20T04:58:48;5.33;;;3.60;;
4268;SDS011;2148;48.554;7.834;2023-07-20T05:01:13;4.63;;;3.33;;
4268;SDS011;2148;48.554;7.834;2023-07-20T05:03:38;4.67;;;3.70;;
4268;SDS011;2148;48.554;7.834;2023-07-20T05:06:04;4.43;;;3.40;;
4268;SDS011;2148;48.554;7.834;2023-07-20T05:08:29;5.50;;;3.73;;
4268;SDS011;2148;48.554;7.834;2023-07-20T05:10:54;5.53;;;4.00;;
4268;SDS011;2148;48.554;7.834;2023-07-20T05:13:20;7.10;;;4.20;;
4268;SDS011;2148;48.554;7.834;2023-07-20T05:15:45;6.03;;;3.80;;
4268;SDS011;2148;48.554;7.834;2023-07-20T05:18:10;4.73;;;3.53;;
4268;SDS011;2148;48.554;7.834;2023-07-20T05:20:35;6.93;;;4.07;;
4268;SDS011;2148;48.554;7.834;2023-07-20T05:23:02;4.40;;;3.83;;
4268;SDS011;2148;48.554;7.834;2023-07-20T05:25:27;4.90;;;3.80;;
4268;SDS011;2148;48.554;7.834;2023-07-20T05:27:52;4.00;;;3.60;;
4268;SDS011;2148;48.554;7.834;2023-07-20T05:30:20;5.83;;;3.80;;
4268;SDS011;2148;48.554;7.834;2023-07-20T05:32:45;6.37;;;3.50;;
4268;SDS011;2148;48.554;7.834;2023-07-20T05:35:15;6.57;;;3.70;;
4268;SDS011;2148;48.554;7.834;2023-07-20T05:37:42;4.67;;;3.40;;
4268;SDS011;2148;48.554;7.834;2023-07-20T05:40:07;6.37;;;4.23;;
4268;SDS011;2148;48.554;7.834;2023-07-20T05:42:33;4.90;;;4.03;;
4268;SDS011;2148;48.554;7.834;2023-07-20T05:44:58;5.93;;;3.73;;
4268;SDS011;2148;48.554;7.834;2023-07-20T05:47:24;6.50;;;4.00;;
4268;SDS011;2148;48.554;7.834;2023-07-20T05:49:49;6.63;;;4.67;;
4268;SDS011;2148;48.554;7.834;2023-07-20T05:52:14;4.97;;;4.03;;
4268;SDS011;2148;48.554;7.834;2023-07-20T05:54:39;5.17;;;3.77;;
4268;SDS011;2148;48.554;7.834;2023-07-20T05:57:05;5.00;;;4.10;;
4268;SDS011;2148;48.554;7.834;2023-07-20T05:59:30;6.23;;;4.07;;
4268;SDS011;2148;48.554;7.834;2023-07-20T06:01:56;5.47;;;4.73;;
4268;SDS011;2148;48.554;7.834;2023-07-20T06:04:21;5.27;;;4.00;;
4268;SDS011;2148;48.554;7.834;2023-07-20T06:06:47;7.30;;;4.50;;
4268;SDS011;2148;48.554;7.834;2023-07-20T06:09:12;5.33;;;4.50;;
4268;SDS011;2148;48.554;7.834;2023-07-20T06:11:38;6.37;;;4.30;;
4268;SDS011;2148;48.554;7.834;2023-07-20T06:14:04;6.07;;;4.00;;
4268;SDS011;2148;48.554;7.834;2023-07-20T06:16:29;4.53;;;4.10;;
4268;SDS011;2148;48.554;7.834;2023-07-20T06:18:55;6.23;;;3.67;;
4268;SDS011;2148;48.554;7.834;2023-07-20T06:21:20;7.63;;;4.23;;
4268;SDS011;2148;48.554;7.834;2023-07-20T06:23:45;8.73;;;4.00;;
4268;SDS011;2148;48.554;7.834;2023-07-20T06:26:11;6.17;;;3.07;;
4268;SDS011;2148;48.554;7.834;2023-07-20T06:28:36;6.63;;;3.40;;
4268;SDS011;2148;48.554;7.834;2023-07-20T06:31:02;3.87;;;2.47;;
4268;SDS011;2148;48.554;7.834;2023-07-20T06:33:27;4.83;;;2.77;;
4268;SDS011;2148;48.554;7.834;2023-07-20T06:35:53;3.17;;;2.30;;
4268;SDS011;2148;48.554;7.834;2023-07-20T06:38:18;3.63;;;2.33;;
4268;SDS011;2148;48.554;7.834;2023-07-20T06:40:45;4.07;;;2.23;;
4268;SDS011;2148;48.554;7.834;2023-07-20T06:43:11;3.07;;;2.20;;
4268;SDS011;2148;48.554;7.834;2023-07-20T06:45:36;3.20;;;2.43;;
4268;SDS011;2148;48.554;7.834;2023-07-20T06:48:02;4.60;;;2.13;;
4268;SDS011;2148;48.554;7.834;2023-07-20T06:50:28;2.50;;;2.23;;
4268;SDS011;2148;48.554;7.834;2023-07-20T06:52:53;4.00;;;2.30;;
4268;SDS011;2148;48.554;7.834;2023-07-20T06:55:19;3.70;;;2.00;;
4268;SDS011;2148;48.554;7.834;2023-07-20T06:57:44;3.90;;;1.90;;
4268;SDS011;2148;48.554;7.834;2023-07-20T07:00:09;3.13;;;2.40;;
4268;SDS011;2148;48.554;7.834;2023-07-20T07:02:35;2.53;;;2.27;;
4268;SDS011;2148;48.554;7.834;2023-07-20T07:05:00;6.23;;;2.60;;
4268;SDS011;2148;48.554;7.834;2023-07-20T07:07:26;6.50;;;2.17;;
4268;SDS011;2148;48.554;7.834;2023-07-20T07:09:51;3.47;;;2.40;;
4268;SDS011;2148;48.554;7.834;2023-07-20T07:12:17;3.17;;;2.37;;
4268;SDS011;2148;48.554;7.834;2023-07-20T07:14:42;4.03;;;2.20;;
4268;SDS011;2148;48.554;7.834;2023-07-20T07:17:07;2.67;;;2.00;;
4268;SDS011;2148;48.554;7.834;2023-07-20T07:19:32;2.77;;;2.10;;
4268;SDS011;2148;48.554;7.834;2023-07-20T07:21:58;2.67;;;2.00;;
4268;SDS011;2148;48.554;7.834;2023-07-20T07:24:23;3.67;;;2.33;;
4268;SDS011;2148;48.554;7.834;2023-07-20T07:26:48;2.90;;;2.27;;
4268;SDS011;2148;48.554;7.834;2023-07-20T07:29:13;2.90;;;2.13;;
4268;SDS011;2148;48.554;7.834;2023-07-20T07:31:39;3.87;;;2.50;;
4268;SDS011;2148;48.554;7.834;2023-07-20T07:34:04;5.07;;;2.40;;
4268;SDS011;2148;48.554;7.834;2023-07-20T07:36:30;4.47;;;2.40;;
4268;SDS011;2148;48.554;7.834;2023-07-20T07:38:56;3.73;;;2.53;;
4268;SDS011;2148;48.554;7.834;2023-07-20T07:41:21;5.03;;;2.30;;
4268;SDS011;2148;48.554;7.834;2023-07-20T07:43:47;4.93;;;2.30;;
4268;SDS011;2148;48.554;7.834;2023-07-20T07:46:12;5.57;;;2.10;;
4268;SDS011;2148;48.554;7.834;2023-07-20T07:48:39;3.63;;;2.67;;
4268;SDS011;2148;48.554;7.834;2023-07-20T07:51:04;2.67;;;2.30;;
4268;SDS011;2148;48.554;7.834;2023-07-20T07:53:29;3.17;;;2.20;;
4268;SDS011;2148;48.554;7.834;2023-07-20T07:55:54;5.00;;;2.87;;
4268;SDS011;2148;48.554;7.834;2023-07-20T07:58:20;4.43;;;2.73;;
4268;SDS011;2148;48.554;7.834;2023-07-20T08:00:46;4.17;;;2.70;;
4268;SDS011;2148;48.554;7.834;2023-07-20T08:03:12;4.77;;;2.60;;
4268;SDS011;2148;48.554;7.834;2023-07-20T08:05:38;4.33;;;2.70;;
4268;SDS011;2148;48.554;7.834;2023-07-20T08:08:03;4.87;;;2.10;;
4268;SDS011;2148;48.554;7.834;2023-07-20T08:10:29;4.50;;;2.40;;
4268;SDS011;2148;48.554;7.834;2023-07-20T08:12:54;3.43;;;2.53;;
4268;SDS011;2148;48.554;7.834;2023-07-20T08:15:20;4.20;;;2.23;;
4268;SDS011;2148;48.554;7.834;2023-07-20T08:17:45;3.37;;;2.30;;
4268;SDS011;2148;48.554;7.834;2023-07-20T08:20:13;5.10;;;2.03;;
4268;SDS011;2148;48.554;7.834;2023-07-20T08:22:39;6.40;;;2.40;;
4268;SDS011;2148;48.554;7.834;2023-07-20T08:25:05;4.23;;;2.40;;
4268;SDS011;2148;48.554;7.834;2023-07-20T08:27:31;4.43;;;2.47;;
4268;SDS011;2148;48.554;7.834;2023-07-20T08:29:57;4.03;;;2.60;;
4268;SDS011;2148;48.554;7.834;2023-07-20T08:32:22;2.93;;;2.60;;
4268;SDS011;2148;48.554;7.834;2023-07-20T08:34:48;3.70;;;2.40;;
4268;SDS011;2148;48.554;7.834;2023-07-20T08:37:13;6.13;;;3.03;;
4268;SDS011;2148;48.554;7.834;2023-07-20T08:39:38;3.53;;;2.50;;
4268;SDS011;2148;48.554;7.834;2023-07-20T08:42:04;2.53;;;2.13;;
4268;SDS011;2148;48.554;7.834;2023-07-20T08:44:32;3.27;;;2.47;;
4268;SDS011;2148;48.554;7.834;2023-07-20T08:46:57;4.33;;;2.43;;
4268;SDS011;2148;48.554;7.834;2023-07-20T08:49:24;5.33;;;2.53;;
4268;SDS011;2148;48.554;7.834;2023-07-20T08:51:49;2.77;;;2.20;;
4268;SDS011;2148;48.554;7.834;2023-07-20T08:54:16;2.40;;;2.00;;
4268;SDS011;2148;48.554;7.834;2023-07-20T08:56:41;3.20;;;2.33;;
4268;SDS011;2148;48.554;7.834;2023-07-20T08:59:08;2.47;;;2.20;;
4268;SDS011;2148;48.554;7.834;2023-07-20T09:01:33;3.47;;;1.97;;
4268;SDS011;2148;48.554;7.834;2023-07-20T09:04:00;2.90;;;2.20;;
4268;SDS011;2148;48.554;7.834;2023-07-20T09:06:26;3.50;;;2.10;;
4268;SDS011;2148;48.554;7.834;2023-07-20T09:08:51;4.17;;;2.10;;
4268;SDS011;2148;48.554;7.834;2023-07-20T09:11:16;2.43;;;2.00;;
4268;SDS011;2148;48.554;7.834;2023-07-20T09:13:42;4.60;;;2.67;;
4268;SDS011;2148;48.554;7.834;2023-07-20T09:16:07;3.47;;;2.70;;
4268;SDS011;2148;48.554;7.834;2023-07-20T09:18:33;4.70;;;2.30;;
4268;SDS011;2148;48.554;7.834;2023-07-20T09:21:02;3.97;;;2.37;;
4268;SDS011;2148;48.554;7.834;2023-07-20T09:23:29;3.40;;;2.20;;
4268;SDS011;2148;48.554;7.834;2023-07-20T09:25:57;4.40;;;2.47;;
4268;SDS011;2148;48.554;7.834;2023-07-20T09:28:22;3.00;;;2.30;;
4268;SDS011;2148;48.554;7.834;2023-07-20T09:30:47;4.10;;;2.10;;
4268;SDS011;2148;48.554;7.834;2023-07-20T09:33:19;3.67;;;2.50;;
4268;SDS011;2148;48.554;7.834;2023-07-20T09:35:46;3.53;;;2.70;;
4268;SDS011;2148;48.554;7.834;2023-07-20T09:38:11;3.37;;;2.33;;
4268;SDS011;2148;48.554;7.834;2023-07-20T09:40:39;3.03;;;2.10;;
4268;SDS011;2148;48.554;7.834;2023-07-20T09:43:07;3.17;;;2.23;;
4268;SDS011;2148;48.554;7.834;2023-07-20T09:45:33;4.33;;;2.50;;
4268;SDS011;2148;48.554;7.834;2023-07-20T09:48:07;3.80;;;2.33;;
4268;SDS011;2148;48.554;7.834;2023-07-20T09:50:40;3.97;;;2.00;;
4268;SDS011;2148;48.554;7.834;2023-07-20T09:53:07;2.83;;;2.07;;
4268;SDS011;2148;48.554;7.834;2023-07-20T09:55:33;3.83;;;2.33;;
4268;SDS011;2148;48.554;7.834;2023-07-20T09:58:00;3.97;;;2.13;;
4268;SDS011;2148;48.554;7.834;2023-07-20T10:00:25;4.10;;;2.63;;
4268;SDS011;2148;48.554;7.834;2023-07-20T10:02:50;4.13;;;2.23;;
4268;SDS011;2148;48.554;7.834;2023-07-20T10:05:16;3.23;;;2.40;;
4268;SDS011;2148;48.554;7.834;2023-07-20T10:07:49;3.73;;;2.50;;
4268;SDS011;2148;48.554;7.834;2023-07-20T10:10:16;3.70;;;2.10;;
4268;SDS011;2148;48.554;7.834;2023-07-20T10:12:42;4.17;;;2.50;;
4268;SDS011;2148;48.554;7.834;2023-07-20T10:15:23;3.00;;;2.70;;
4268;SDS011;2148;48.554;7.834;2023-07-20T10:17:57;2.83;;;2.00;;
4268;SDS011;2148;48.554;7.834;2023-07-20T10:20:33;3.00;;;2.27;;
4268;SDS011;2148;48.554;7.834;2023-07-20T10:22:59;2.77;;;2.30;;
4268;SDS011;2148;48.554;7.834;2023-07-20T10:25:25;2.93;;;2.33;;
4268;SDS011;2148;48.554;7.834;2023-07-20T10:27:50;5.03;;;2.30;;
4268;SDS011;2148;48.554;7.834;2023-07-20T10:30:16;3.17;;;2.20;;
4268;SDS011;2148;48.554;7.834;2023-07-20T10:32:42;3.47;;;2.10;;
4268;SDS011;2148;48.554;7.834;2023-07-20T10:35:12;2.10;;;1.90;;
4268;SDS011;2148;48.554;7.834;2023-07-20T10:37:45;2.50;;;1.83;;
4268;SDS011;2148;48.554;7.834;2023-07-20T10:40:25;3.30;;;2.20;;
4268;SDS011;2148;48.554;7.834;2023-07-20T10:42:51;3.00;;;1.93;;
4268;SDS011;2148;48.554;7.834;2023-07-20T10:45:26;3.40;;;2.23;;
4268;SDS011;2148;48.554;7.834;2023-07-20T10:47:58;3.30;;;2.10;;
4268;SDS011;2148;48.554;7.834;2023-07-20T10:50:23;2.30;;;1.70;;
4268;SDS011;2148;48.554;7.834;2023-07-20T10:53:03;3.17;;;1.77;;
4268;SDS011;2148;48.554;7.834;2023-07-20T10:55:39;3.20;;;2.23;;
4268;SDS011;2148;48.554;7.834;2023-07-20T10:58:12;2.77;;;2.10;;
4268;SDS011;2148;48.554;7.834;2023-07-20T11:00:55;2.80;;;1.87;;
4268;SDS011;2148;48.554;7.834;2023-07-20T11:03:26;2.73;;;2.43;;
4268;SDS011;2148;48.554;7.834;2023-07-20T11:05:53;2.90;;;1.90;;
4268;SDS011;2148;48.554;7.834;2023-07-20T11:08:37;2.20;;;2.00;;
4268;SDS011;2148;48.554;7.834;2023-07-20T11:11:24;1.93;;;1.77;;
4268;SDS011;2148;48.554;7.834;2023-07-20T11:16:59;2.10;;;1.90;;
4268;SDS011;2148;48.554;7.834;2023-07-20T11:19:36;2.70;;;1.87;;
4268;SDS011;2148;48.554;7.834;2023-07-20T11:22:01;3.17;;;2.00;;
4268;SDS011;2148;48.554;7.834;2023-07-20T11:24:29;2.97;;;1.70;;
4268;SDS011;2148;48.554;7.834;2023-07-20T11:26:55;2.07;;;1.90;;
4268;SDS011;2148;48.554;7.834;2023-07-20T11:29:21;3.40;;;2.20;;
4268;SDS011;2148;48.554;7.834;2023-07-20T11:31:48;2.70;;;2.10;;
4268;SDS011;2148;48.554;7.834;2023-07-20T11:34:17;3.33;;;1.80;;
4268;SDS011;2148;48.554;7.834;2023-07-20T11:36:44;2.00;;;1.80;;
4268;SDS011;2148;48.554;7.834;2023-07-20T11:39:11;2.50;;;1.83;;
4268;SDS011;2148;48.554;7.834;2023-07-20T11:41:38;3.53;;;1.80;;
4268;SDS011;2148;48.554;7.834;2023-07-20T11:44:05;2.80;;;1.97;;
4268;SDS011;2148;48.554;7.834;2023-07-20T11:46:31;4.07;;;1.93;;
4268;SDS011;2148;48.554;7.834;2023-07-20T11:48:57;1.90;;;1.60;;
4268;SDS011;2148;48.554;7.834;2023-07-20T11:51:24;2.27;;;1.90;;
4268;SDS011;2148;48.554;7.834;2023-07-20T11:53:50;2.50;;;2.10;;
4268;SDS011;2148;48.554;7.834;2023-07-20T11:56:15;3.07;;;1.93;;
4268;SDS011;2148;48.554;7.834;2023-07-20T11:58:41;2.53;;;1.77;;
4268;SDS011;2148;48.554;7.834;2023-07-20T12:01:09;3.57;;;1.90;;
4268;SDS011;2148;48.554;7.834;2023-07-20T12:03:35;3.63;;;2.40;;
4268;SDS011;2148;48.554;7.834;2023-07-20T12:06:07;3.87;;;2.10;;
4268;SDS011;2148;48.554;7.834;2023-07-20T12:08:33;2.87;;;2.23;;
4268;SDS011;2148;48.554;7.834;2023-07-20T12:10:59;2.27;;;1.90;;
4268;SDS011;2148;48.554;7.834;2023-07-20T12:13:26;3.90;;;1.90;;
4268;SDS011;2148;48.554;7.834;2023-07-20T12:16:06;1.97;;;1.77;;
4268;SDS011;2148;48.554;7.834;2023-07-20T12:18:36;3.40;;;2.00;;
4268;SDS011;2148;48.554;7.834;2023-07-20T12:21:02;3.37;;;1.90;;
4268;SDS011;2148;48.554;7.834;2023-07-20T12:23:34;3.23;;;1.90;;
4268;SDS011;2148;48.554;7.834;2023-07-20T12:26:00;1.90;;;1.70;;
4268;SDS011;2148;48.554;7.834;2023-07-20T12:28:25;2.00;;;1.80;;
4268;SDS011;2148;48.554;7.834;2023-07-20T12:30:51;3.00;;;1.87;;
4268;SDS011;2148;48.554;7.834;2023-07-20T12:33:21;2.60;;;1.87;;
4268;SDS011;2148;48.554;7.834;2023-07-20T12:35:47;3.53;;;1.93;;
4268;SDS011;2148;48.554;7.834;2023-07-20T12:38:13;2.10;;;1.90;;
4268;SDS011;2148;48.554;7.834;2023-07-20T12:40:38;2.30;;;1.83;;
4268;SDS011;2148;48.554;7.834;2023-07-20T12:43:03;3.67;;;2.57;;
4268;SDS011;2148;48.554;7.834;2023-07-20T12:45:29;2.70;;;1.97;;
4268;SDS011;2148;48.554;7.834;2023-07-20T12:47:54;2.37;;;2.00;;
4268;SDS011;2148;48.554;7.834;2023-07-20T12:50:20;2.10;;;1.90;;
4268;SDS011;2148;48.554;7.834;2023-07-20T12:52:45;1.97;;;1.80;;
4268;SDS011;2148;48.554;7.834;2023-07-20T12:55:10;3.37;;;2.13;;
4268;SDS011;2148;48.554;7.834;2023-07-20T12:57:36;1.97;;;1.73;;
4268;SDS011;2148;48.554;7.834;2023-07-20T13:00:06;3.40;;;1.90;;
4268;SDS011;2148;48.554;7.834;2023-07-20T13:02:35;2.00;;;1.80;;
4268;SDS011;2148;48.554;7.834;2023-07-20T13:05:01;3.10;;;2.00;;
4268;SDS011;2148;48.554;7.834;2023-07-20T13:07:31;2.53;;;1.90;;
4268;SDS011;2148;48.554;7.834;2023-07-20T13:09:58;2.93;;;2.00;;
4268;SDS011;2148;48.554;7.834;2023-07-20T13:12:25;3.10;;;2.17;;
4268;SDS011;2148;48.554;7.834;2023-07-20T13:14:54;4.63;;;1.63;;
4268;SDS011;2148;48.554;7.834;2023-07-20T13:17:20;2.53;;;1.73;;
4268;SDS011;2148;48.554;7.834;2023-07-20T13:19:46;2.93;;;1.83;;
4268;SDS011;2148;48.554;7.834;2023-07-20T13:22:11;3.87;;;2.10;;
4268;SDS011;2148;48.554;7.834;2023-07-20T13:24:36;1.67;;;1.57;;
4268;SDS011;2148;48.554;7.834;2023-07-20T13:27:01;2.63;;;1.70;;
4268;SDS011;2148;48.554;7.834;2023-07-20T13:29:27;2.43;;;1.83;;
4268;SDS011;2148;48.554;7.834;2023-07-20T13:31:52;2.17;;;1.83;;
4268;SDS011;2148;48.554;7.834;2023-07-20T13:34:18;2.03;;;1.80;;
4268;SDS011;2148;48.554;7.834;2023-07-20T13:36:43;5.50;;;2.20;;
4268;SDS011;2148;48.554;7.834;2023-07-20T13:39:08;2.17;;;1.90;;
4268;SDS011;2148;48.554;7.834;2023-07-20T13:41:34;3.30;;;1.67;;
4268;SDS011;2148;48.554;7.834;2023-07-20T13:43:59;2.37;;;1.80;;
4268;SDS011;2148;48.554;7.834;2023-07-20T13:46:24;2.43;;;2.00;;
4268;SDS011;2148;48.554;7.834;2023-07-20T13:48:50;1.70;;;1.60;;
4268;SDS011;2148;48.554;7.834;2023-07-20T13:51:15;1.83;;;1.63;;
4268;SDS011;2148;48.554;7.834;2023-07-20T13:53:40;3.90;;;1.80;;
4268;SDS011;2148;48.554;7.834;2023-07-20T13:56:06;2.23;;;1.60;;
4268;SDS011;2148;48.554;7.834;2023-07-20T13:58:32;3.10;;;2.13;;
4268;SDS011;2148;48.554;7.834;2023-07-20T14:00:57;3.53;;;1.87;;
4268;SDS011;2148;48.554;7.834;2023-07-20T14:03:22;2.20;;;1.90;;
4268;SDS011;2148;48.554;7.834;2023-07-20T14:05:48;2.40;;;1.77;;
4268;SDS011;2148;48.554;7.834;2023-07-20T14:08:13;1.97;;;1.77;;
4268;SDS011;2148;48.554;7.834;2023-07-20T14:10:39;2.57;;;2.03;;
4268;SDS011;2148;48.554;7.834;2023-07-20T14:13:04;2.87;;;1.60;;
4268;SDS011;2148;48.554;7.834;2023-07-20T14:15:29;2.90;;;1.90;;
4268;SDS011;2148;48.554;7.834;2023-07-20T14:17:55;2.83;;;1.60;;
4268;SDS011;2148;48.554;7.834;2023-07-20T14:20:20;2.60;;;1.90;;
4268;SDS011;2148;48.554;7.834;2023-07-20T14:22:45;2.53;;;1.80;;
4268;SDS011;2148;48.554;7.834;2023-07-20T14:25:12;2.47;;;2.00;;
4268;SDS011;2148;48.554;7.834;2023-07-20T14:27:38;3.23;;;1.80;;
4268;SDS011;2148;48.554;7.834;2023-07-20T14:30:03;2.63;;;1.50;;
4268;SDS011;2148;48.554;7.834;2023-07-20T14:32:29;3.13;;;1.80;;
4268;SDS011;2148;48.554;7.834;2023-07-20T14:34:55;1.90;;;1.60;;
4268;SDS011;2148;48.554;7.834;2023-07-20T14:37:20;2.77;;;2.10;;
4268;SDS011;2148;48.554;7.834;2023-07-20T14:39:45;4.47;;;2.13;;
4268;SDS011;2148;48.554;7.834;2023-07-20T14:42:11;3.20;;;1.80;;
4268;SDS011;2148;48.554;7.834;2023-07-20T14:44:36;3.07;;;2.10;;
4268;SDS011;2148;48.554;7.834;2023-07-20T14:47:01;3.00;;;1.80;;
4268;SDS011;2148;48.554;7.834;2023-07-20T14:49:27;2.97;;;2.10;;
4268;SDS011;2148;48.554;7.834;2023-07-20T14:51:52;4.53;;;1.87;;
4268;SDS011;2148;48.554;7.834;2023-07-20T14:54:18;3.63;;;1.87;;
4268;SDS011;2148;48.554;7.834;2023-07-20T14:56:49;2.00;;;1.80;;
4268;SDS011;2148;48.554;7.834;2023-07-20T14:59:17;3.50;;;1.83;;
4268;SDS011;2148;48.554;7.834;2023-07-20T15:01:42;2.33;;;1.90;;
4268;SDS011;2148;48.554;7.834;2023-07-20T15:04:10;2.73;;;1.90;;
4268;SDS011;2148;48.554;7.834;2023-07-20T15:06:35;2.37;;;1.87;;
4268;SDS011;2148;48.554;7.834;2023-07-20T15:09:00;2.20;;;1.60;;
4268;SDS011;2148;48.554;7.834;2023-07-20T15:11:25;4.40;;;1.80;;
4268;SDS011;2148;48.554;7.834;2023-07-20T15:13:51;3.87;;;1.63;;
4268;SDS011;2148;48.554;7.834;2023-07-20T15:16:16;2.80;;;1.93;;
4268;SDS011;2148;48.554;7.834;2023-07-20T15:18:41;2.40;;;1.77;;